Sweeney Granite Mountains, California Weather observations

Data are for 10 minute period ending at time listed.
 Day   Time   Solar   Ave.   Ave.  Ave.  Vector  Max.   Baro.   Total    
  of    of     Rad.   Air    Rel.  Wind   Wind   Wind  Press.  Precip.   
Year   Day            Temp.  Hum.  Speed  Dir.   Gust                    
2014   (PST)  Kw/m2    F      %     mph   deg.    mph    mb.     in.     
-------------------------------------------------------------------------
 109    0:00   0.00   55.9    55    2.1   113     4.2   867.7    0.00 
 109    0:10   0.00   55.3    55    3.2   107     4.7   867.8    0.00 
 109    0:20   0.00   55.5    55    1.4   108     3.0   867.8    0.00 
 109    0:30   0.00   55.8    55    0.5   117     2.0   867.7    0.00 
 109    0:40   0.00   55.8    54    0.0   286     0.9   867.6    0.00 
 109    0:50   0.00   55.7    54    0.8   309     1.8   867.5    0.00 
 109    1:00   0.00   55.9    54    0.4    12     2.6   867.5    0.00 
 109    1:10   0.00   55.9    54    1.4    53     2.7   867.4    0.00 
 109    1:20   0.00   55.7    54    0.3   104     1.2   867.3    0.00 
 109    1:30   0.00   55.6    54    1.3   114     3.9   867.3    0.00 
 109    1:40   0.00   55.0    56    2.7   107     3.7   867.3    0.00 
 109    1:50   0.00   55.0    56    3.2   114     4.5   867.2    0.00 
 109    2:00   0.00   54.9    56    2.8   114     4.1   867.3    0.00 
 109    2:10   0.00   55.1    55    2.4   107     4.4   867.4    0.00 
 109    2:20   0.00   54.6    56    1.6   106     3.1   867.4    0.00 
 109    2:30   0.00   53.9    57    0.4   116     3.1   867.5    0.00 
 109    2:40   0.00   53.3    58    0.5   280     1.4   867.5    0.00 
 109    2:50   0.00   53.3    58    0.4   288     1.2   867.6    0.00 
 109    3:00   0.00   53.6    58    0.7   305     1.5   867.6    0.00 
 109    3:10   0.00   53.8    57    0.3    89     1.5   867.6    0.00 
 109    3:20   0.00   52.2    58    0.7    99     2.6   867.7    0.00 
 109    3:30   0.00   52.0    60    0.8    85     1.5   867.6    0.00 
 109    3:40   0.00   51.2    60    0.8   101     1.6   867.6    0.00 
 109    3:50   0.00   50.7    62    0.8   320     2.3   867.7    0.00 
 109    4:00   0.00   51.1    61    1.8   295     2.4   867.7    0.00 
 109    4:10   0.00   51.2    62    2.2   280     2.6   867.7    0.00 
 109    4:20   0.00   51.9    61    2.2   274     2.9   867.7    0.00 
 109    4:30   0.00   52.5    60    1.7   284     2.2   867.6    0.00 
 109    4:40   0.00   55.0    57    1.2   284     1.8   867.7    0.00 
 109    4:50   0.00   54.7    57    1.4   284     1.8   867.7    0.00 
 109    5:00   0.00   54.8    58    1.6   292     2.6   867.8    0.00 
 109    5:10   0.00   54.6    58    2.3   293     2.6   867.8    0.00 
 109    5:20   0.00   53.5    60    2.3   297     3.1   867.9    0.00 
 109    5:30   0.01   55.0    58    0.9   278     2.2   867.9    0.00 
 109    5:40   0.02   56.0    56    0.5   132     2.2   868.0    0.00 
 109    5:50   0.04   56.4    55    0.8   194     3.4   868.1    0.00 
 109    6:00   0.09   58.2    52    1.2    86     1.8   868.2    0.00 
 109    6:10   0.12   60.7    48    0.4    88     1.2   868.2    0.00 
 109    6:20   0.16   63.2    43    1.0   113     2.9   868.3    0.00 
 109    6:30   0.19   62.3    45    1.0   110     1.8   868.3    0.00 
 109    6:40   0.23   62.9    44    1.3   102     3.1   868.3    0.00 
 109    6:50   0.27   63.4    43    1.2   179     3.3   868.4    0.00 
 109    7:00   0.31   63.9    42    1.1   164     3.0   868.5    0.00 
 109    7:10   0.35   65.8    38    0.6   170     2.0   868.5    0.00 
 109    7:20   0.39   65.5    38    1.9   187     3.7   868.6    0.00 
 109    7:30   0.42   63.8    41    3.2   113     5.7   868.8    0.00 
 109    7:40   0.46   64.5    40    1.9   189     4.6   868.8    0.00 
 109    7:50   0.50   64.0    40    3.3   104     5.3   868.9    0.00 
 109    8:00   0.54   65.2    38    2.3   112     4.7   869.0    0.00 
 109    8:10   0.58   65.0    39    3.0   155     8.0   869.1    0.00 
 109    8:20   0.61   65.6    38    3.4   206     5.8   869.3    0.00 
 109    8:30   0.66   66.9    36    2.4   190     5.8   869.4    0.00 
 109    8:40   0.70   67.4    35    3.6   200     8.8   869.5    0.00 
 109    8:50   0.76   66.8    36    5.2    98    10.7   869.7    0.00 
 109    9:00   0.83   66.8    35    4.6   207    10.1   869.8    0.00 
 109    9:10   0.51   66.1    36    4.6   215    10.2   869.9    0.00 
 109    9:20   0.50   65.9    35    4.6   230    11.2   870.0    0.00 
 109    9:30   0.69   65.9    35    4.6   208    10.2   870.1    0.00 
 109    9:40   0.74   66.2    33    5.9   209    15.3   870.2    0.00 
 109    9:50   0.89   67.4    31    5.7   216    10.3   870.2    0.00 
 109   10:00   0.96   68.3    30    4.0   196    10.4   870.2    0.00 
 109   10:10   0.71   67.3    32    5.0   108    10.8   870.2    0.00 
 109   10:20   0.76   68.4    30    3.8   110     9.9   870.2    0.00 
 109   10:30   0.82   68.7    29    4.3   227    12.1   870.1    0.00 
 109   10:40   0.98   68.7    29    6.9   202    16.4   870.0    0.00 
 109   10:50   0.95   68.8    28    4.8   269     8.7   870.0    0.00 
 109   11:00   1.05   70.2    27    3.8   232     9.6   870.1    0.00 
 109   11:10   0.51   68.6    28    5.9   226    13.5   870.1    0.00 
 109   11:20   0.43   67.9    29    5.7   267    12.6   870.1    0.00 
 109   11:30   0.76   69.7    27    4.9   262    11.6   869.9    0.00 
 109   11:40   0.55   68.1    29    6.7   222    13.1   869.8    0.00 
 109   11:50   0.99   69.4    28    5.9   136    12.7   869.7    0.00 
 109   12:00   1.15   70.5    28    5.4   215    13.0   869.7    0.00 
 109   12:10   1.05   71.3    27    5.5   146    14.5   869.7    0.00 
 109   12:20   0.96   71.0    28    5.7   154    12.7   869.7    0.00 
 109   12:30   1.10   71.5    26    2.8    92     7.4   869.8    0.00 
 109   12:40   1.09   71.7    27    6.8   235    13.7   869.7    0.00 
 109   12:50   0.53   70.8    27    4.7   274    10.8   869.7    0.00 
 109   13:00   0.47   69.7    28    3.1   237     9.6   869.6    0.00 
 109   13:10   0.84   71.3    27    5.9   235    11.6   869.6    0.00 
 109   13:20   0.33   69.9    28    5.7   264    17.8   869.6    0.00 
 109   13:30   0.71   69.9    28    3.9   249    11.2   869.5    0.00 
 109   13:40   0.55   70.3    27    6.4   235    16.5   869.4    0.00 
 109   13:50   0.71   71.6    25    4.3   253    12.0   869.3    0.00 
 109   14:00   0.91   72.4    25    5.3   228    14.8   869.3    0.00 
 109   14:10   0.94   73.6    24    4.4   210    13.4   869.2    0.00 
 109   14:20   0.80   73.2    24    4.9   215    15.6   869.2    0.00 
 109   14:30   0.54   71.6    24    5.6   200    11.0   869.2    0.00 
 109   14:40   0.76   73.4    23    5.2   254    10.1   869.1    0.00 
 109   14:50   0.36   71.4    24    5.7   213    11.7   869.2    0.00 
 109   15:00   0.42   71.3    24    4.2   190    10.7   869.1    0.00 
 109   15:10   0.29   71.6    23    3.1   217    10.1   869.0    0.00 
 109   15:20   0.36   71.6    23    4.8   218    11.5   868.9    0.00 
 109   15:30   0.23   70.2    24    5.9   231    12.9   868.9    0.00 
 109   15:40   0.23   70.6    24    3.9   159    10.9   868.8    0.00 
 109   15:50   0.29   71.0    23    2.9   140     8.1   868.8    0.00 
 109   16:00   0.45   73.0    22    2.5   139     7.7   868.8    0.00 
 109   16:10   0.25   72.6    22    5.4   202    14.0   868.9    0.00 
 109   16:20   0.24   71.8    22    4.1   278     8.7   868.9    0.00 
 109   16:30   0.29   72.1    22    5.9   289    13.7   868.9    0.00 
 109   16:40   0.28   73.0    21    3.6   290     8.6   869.0    0.00 
 109   16:50   0.36   73.6    21    5.3   307     9.9   869.0    0.00 
 109   17:00   0.32   73.8    21    5.9   287    11.2   869.0    0.00 
 109   17:10   0.24   72.9    21    6.6   272    10.9   868.9    0.00 
 109   17:20   0.18   72.2    22    6.1   266    10.4   868.9    0.00 
 109   17:30   0.04   70.6    22    7.6   280    12.6   868.8    0.00 
 109   17:40   0.03   69.3    23    8.0   296    13.0   868.8    0.00 
 109   17:50   0.03   69.0    23    6.0   288     8.6   868.8    0.00 
 109   18:00   0.01   68.8    23    4.3   251     7.2   868.8    0.00 
 109   18:10   0.01   68.6    23    3.7   254     7.5   868.9    0.00 
 109   18:20   0.00   67.4    24    4.8   289     9.1   868.9    0.00 
 109   18:30   0.00   67.6    24    5.1   258     8.0   868.9    0.00 
 109   18:40   0.00   67.3    24    3.0   267     6.0   869.0    0.00 
 109   18:50   0.00   65.9    25    3.8   267     5.3   869.0    0.00 
 109   19:00   0.00   65.9    25    1.4   229     3.3   869.1    0.00 
 109   19:10   0.00   63.7    27    1.9   259     4.2   869.2    0.00 
 109   19:20   0.00   62.4    29    3.3   291     4.7   869.3    0.00 
 109   19:30   0.00   62.8    28    3.0   299     3.9   869.4    0.00 
 109   19:40   0.00   62.9    28    2.8   282     3.9   869.4    0.00 
 109   19:50   0.00   63.7    28    2.8   276     4.1   869.5    0.00 
 109   20:00   0.00   62.3    29    1.7   271     3.9   869.6    0.00 
 109   20:10   0.00   63.4    28    1.2   288     2.3   869.6    0.00 
 109   20:20   0.00   61.3    30    2.2   287     3.4   869.7    0.00 
 109   20:30   0.00   61.6    30    3.1   263     3.9   869.8    0.00 
 109   20:40   0.00   60.9    31    2.0   239     4.5   869.8    0.00 
 109   20:50   0.00   63.1    30    3.4   234     6.9   869.9    0.00 
 109   21:00   0.00   64.2    30    2.3   253     6.1   870.0    0.00 
 109   21:10   0.00   62.6    32    3.0   286     4.1   870.1    0.00 
 109   21:20   0.00   62.3    32    2.6   286     3.7   870.2    0.00 
 109   21:30   0.00   60.0    35    3.0   293     4.0   870.2    0.00 
 109   21:40   0.00   60.8    34    3.3   275     4.2   870.2    0.00 
 109   21:50   0.00   61.1    34    3.3   274     4.1   870.2    0.00 
 109   22:00   0.00   60.1    36    5.0   281     8.0   870.3    0.00 
 109   22:10   0.00   59.7    39    5.7   289     9.1   870.5    0.00 
 109   22:20   0.00   61.1    38    2.3   276     2.9   870.4    0.00 
 109   22:30   0.00   60.7    37    2.4   270     4.5   870.5    0.00 
 109   22:40   0.00   60.6    37    1.4   255     2.0   870.4    0.00 
 109   22:50   0.00   60.8    37    0.7    82     3.4   870.4    0.00 
 109   23:00   0.00   59.4    38    1.1    90     1.9   870.5    0.00 

Return to Sweeney Granite Mountains graphs page.


Western Regional Climate Center,wrcc@dri.edu